Pays
Station

 

Conditions  météo  pour  Pakanbaru/Simpangtiga  -  Indonésie    Indonésie

  
31 °C
    
 
 

METAR pour Pakanbaru/Simpangtiga :

WIBB 210530Z 35008KT 9999 FEW015 31/23 Q1010

 

Voici le bulletin pour Pakanbaru/Simpangtiga - Indonésie.
 
Le bulletin a été fait il y a 17 heures et 49 minutes, à 05:30 UTC .
Le vent soufflait à la vitesse de 4.1 mètres par seconde de Nord (350°).
 
La température était de 31 °C, avec un point de rosée à 23 °C.
La température ressentie était de 36 °C.
 
La pression atmosphérique était de 1010 hPa.
L'humidité relative était de 62.5%.
 
Il y avait 1 à 2/8ème de nébulosité à une hauteur de 457 mètres.
 
La visibilité globale était de supérieure à 10 kilomètres.
 

 
 
 

Pays :   A   B   C   D   E   F   G   H   I   J   K   L   M   N   O   P   Q   R   S   T   U   V   W   Y   Z

 

Partenaires :  Info Météo avec Met'info
Météo Marine avec MeteoMarine.net
Infos Site  |  Infos Légales  |  Crédits  |  Confidentialité
Contactez-nous  |  Ajouter aux favoris
© 2013-2019 METAR - Tous droits réservés